sensor_id;sensor_type;location;lat;lon;timestamp;P1;durP1;ratioP1;P2;durP2;ratioP2
17935;SDS011;9093;52.062;4.508;2022-11-18T20:55:39;21.17;;;9.63;;
17935;SDS011;9093;52.062;4.508;2022-11-18T20:58:19;20.08;;;9.10;;
17935;SDS011;9093;52.062;4.508;2022-11-18T21:01:09;17.73;;;8.40;;
17935;SDS011;9093;52.062;4.508;2022-11-18T21:03:57;14.05;;;7.30;;
17935;SDS011;9093;52.062;4.508;2022-11-18T21:06:38;18.17;;;7.28;;
17935;SDS011;9093;52.062;4.508;2022-11-18T21:09:18;16.45;;;8.38;;
17935;SDS011;9093;52.062;4.508;2022-11-18T21:11:59;11.98;;;7.03;;
17935;SDS011;9093;52.062;4.508;2022-11-18T21:14:40;20.30;;;7.97;;
17935;SDS011;9093;52.062;4.508;2022-11-18T21:17:20;17.38;;;8.82;;
17935;SDS011;9093;52.062;4.508;2022-11-18T21:20:00;20.83;;;8.75;;
17935;SDS011;9093;52.062;4.508;2022-11-18T21:23:00;18.60;;;8.20;;
17935;SDS011;9093;52.062;4.508;2022-11-18T21:25:41;14.77;;;6.43;;
17935;SDS011;9093;52.062;4.508;2022-11-18T21:28:25;13.38;;;7.10;;
17935;SDS011;9093;52.062;4.508;2022-11-18T21:31:09;17.70;;;6.78;;
17935;SDS011;9093;52.062;4.508;2022-11-18T21:33:50;16.45;;;6.95;;
17935;SDS011;9093;52.062;4.508;2022-11-18T21:36:31;17.77;;;7.05;;
17935;SDS011;9093;52.062;4.508;2022-11-18T21:39:12;10.85;;;5.50;;
17935;SDS011;9093;52.062;4.508;2022-11-18T21:41:52;12.32;;;5.60;;
17935;SDS011;9093;52.062;4.508;2022-11-18T21:44:33;7.38;;;4.35;;
17935;SDS011;9093;52.062;4.508;2022-11-18T21:47:13;6.60;;;3.40;;
17935;SDS011;9093;52.062;4.508;2022-11-18T21:49:53;6.97;;;3.90;;
17935;SDS011;9093;52.062;4.508;2022-11-18T21:52:33;11.13;;;3.53;;
17935;SDS011;9093;52.062;4.508;2022-11-18T21:55:14;5.38;;;3.15;;
17935;SDS011;9093;52.062;4.508;2022-11-18T21:57:55;7.40;;;3.13;;
17935;SDS011;9093;52.062;4.508;2022-11-18T22:00:36;4.05;;;2.40;;
17935;SDS011;9093;52.062;4.508;2022-11-18T22:03:16;4.47;;;1.83;;
17935;SDS011;9093;52.062;4.508;2022-11-18T22:05:58;8.63;;;2.80;;
17935;SDS011;9093;52.062;4.508;2022-11-18T22:08:40;7.50;;;3.25;;
17935;SDS011;9093;52.062;4.508;2022-11-18T22:11:20;9.30;;;3.15;;
17935;SDS011;9093;52.062;4.508;2022-11-18T22:14:01;6.65;;;3.72;;
17935;SDS011;9093;52.062;4.508;2022-11-18T22:16:43;14.13;;;4.10;;
17935;SDS011;9093;52.062;4.508;2022-11-18T22:19:23;8.75;;;3.42;;
17935;SDS011;9093;52.062;4.508;2022-11-18T22:22:04;8.30;;;3.58;;
17935;SDS011;9093;52.062;4.508;2022-11-18T22:24:44;7.75;;;3.97;;
17935;SDS011;9093;52.062;4.508;2022-11-18T22:27:24;7.15;;;4.05;;
17935;SDS011;9093;52.062;4.508;2022-11-18T22:30:05;10.77;;;5.00;;
17935;SDS011;9093;52.062;4.508;2022-11-18T22:32:46;8.23;;;4.65;;
17935;SDS011;9093;52.062;4.508;2022-11-18T22:35:26;16.87;;;5.07;;
17935;SDS011;9093;52.062;4.508;2022-11-18T22:38:06;10.57;;;5.28;;
17935;SDS011;9093;52.062;4.508;2022-11-18T22:40:48;8.83;;;4.43;;
17935;SDS011;9093;52.062;4.508;2022-11-18T22:43:29;11.27;;;4.63;;
17935;SDS011;9093;52.062;4.508;2022-11-18T22:46:10;16.33;;;5.90;;
17935;SDS011;9093;52.062;4.508;2022-11-18T22:48:50;21.97;;;4.93;;
17935;SDS011;9093;52.062;4.508;2022-11-18T22:51:31;19.20;;;5.53;;
17935;SDS011;9093;52.062;4.508;2022-11-18T22:54:12;13.88;;;5.57;;
17935;SDS011;9093;52.062;4.508;2022-11-18T22:56:52;16.83;;;6.88;;
17935;SDS011;9093;52.062;4.508;2022-11-18T22:59:33;7.70;;;4.35;;
17935;SDS011;9093;52.062;4.508;2022-11-18T23:02:14;9.95;;;4.75;;
17935;SDS011;9093;52.062;4.508;2022-11-18T23:04:54;12.60;;;5.23;;
17935;SDS011;9093;52.062;4.508;2022-11-18T23:07:34;9.00;;;4.75;;
17935;SDS011;9093;52.062;4.508;2022-11-18T23:10:15;11.50;;;4.40;;
17935;SDS011;9093;52.062;4.508;2022-11-18T23:12:55;12.05;;;4.90;;
17935;SDS011;9093;52.062;4.508;2022-11-18T23:15:55;9.18;;;4.78;;
17935;SDS011;9093;52.062;4.508;2022-11-18T23:18:38;9.45;;;4.75;;
17935;SDS011;9093;52.062;4.508;2022-11-18T23:21:18;13.23;;;4.72;;
17935;SDS011;9093;52.062;4.508;2022-11-18T23:23:59;9.50;;;4.53;;
17935;SDS011;9093;52.062;4.508;2022-11-18T23:26:40;12.02;;;4.60;;
17935;SDS011;9093;52.062;4.508;2022-11-18T23:29:21;8.30;;;4.32;;
17935;SDS011;9093;52.062;4.508;2022-11-18T23:32:01;10.63;;;4.45;;
17935;SDS011;9093;52.062;4.508;2022-11-18T23:34:42;10.50;;;4.38;;
17935;SDS011;9093;52.062;4.508;2022-11-18T23:37:22;10.82;;;5.03;;
17935;SDS011;9093;52.062;4.508;2022-11-18T23:40:02;11.00;;;5.22;;
17935;SDS011;9093;52.062;4.508;2022-11-18T23:42:43;12.73;;;5.10;;
17935;SDS011;9093;52.062;4.508;2022-11-18T23:45:23;12.43;;;4.97;;
17935;SDS011;9093;52.062;4.508;2022-11-18T23:48:04;7.13;;;4.05;;
17935;SDS011;9093;52.062;4.508;2022-11-18T23:50:53;8.45;;;3.95;;
17935;SDS011;9093;52.062;4.508;2022-11-18T23:53:38;12.05;;;4.40;;
17935;SDS011;9093;52.062;4.508;2022-11-18T23:56:19;11.38;;;3.70;;
17935;SDS011;9093;52.062;4.508;2022-11-18T23:59:01;9.60;;;4.53;;
